Time;durP1;ratioP1;P1;durP2;ratioP2;P2;SDS_P1;SDS_P2;PMS_P1;PMS_P2;Temp;Humidity;BMP_temperature;BMP_pressure;BME280_temperature;BME280_humidity;BME280_pressure;Samples;Min_cycle;Max_cycle;Signal;HPM_P1;HPM_P2
2021/08/07 00:00:46;;;;;;;9.23;3.20;;;15.30;99.90;;;;;;5091863;28;20157;-91
2021/08/07 00:03:11;;;;;;;8.40;3.10;;;15.20;99.90;;;;;;5055998;28;20063;-88
2021/08/07 00:05:37;;;;;;;8.30;3.38;;;15.30;99.90;;;;;;5074012;28;20488;-89
2021/08/07 00:08:04;;;;;;;6.63;3.22;;;15.30;99.90;;;;;;5074749;28;20396;-90
2021/08/07 00:10:29;;;;;;;10.65;2.97;;;15.30;99.90;;;;;;5074493;28;20048;-90
2021/08/07 00:12:55;;;;;;;15.30;2.70;;;15.30;99.90;;;;;;5058050;28;20043;-90
2021/08/07 00:15:21;;;;;;;10.48;2.83;;;15.30;99.90;;;;;;5092706;28;20048;-93
2021/08/07 00:17:47;;;;;;;5.57;2.58;;;15.30;99.90;;;;;;5092183;28;20040;-87
2021/08/07 00:20:13;;;;;;;9.52;2.53;;;15.20;99.90;;;;;;5074849;28;20327;-89
2021/08/07 00:22:39;;;;;;;4.55;2.50;;;15.20;99.90;;;;;;5092209;28;20040;-87
2021/08/07 00:25:05;;;;;;;5.35;2.88;;;15.20;99.90;;;;;;5059081;28;20048;-89
2021/08/07 00:27:32;;;;;;;6.95;3.20;;;15.30;99.90;;;;;;5075204;28;20040;-90
2021/08/07 00:29:57;;;;;;;5.05;2.90;;;15.30;99.90;;;;;;5058791;28;20123;-91
2021/08/07 00:32:23;;;;;;;7.13;2.95;;;15.30;99.90;;;;;;5041248;28;20063;-92
2021/08/07 00:34:49;;;;;;;6.72;2.83;;;15.30;99.90;;;;;;5089207;28;20039;-92
2021/08/07 00:37:15;;;;;;;8.38;3.22;;;15.30;99.90;;;;;;5073280;28;20063;-89
2021/08/07 00:39:41;;;;;;;5.43;3.10;;;15.30;99.90;;;;;;5056854;28;20067;-89
2021/08/07 00:42:06;;;;;;;4.30;2.90;;;15.30;99.90;;;;;;5079318;28;20467;-90
2021/08/07 00:44:32;;;;;;;8.52;4.07;;;15.30;99.90;;;;;;5082203;28;20199;-89
2021/08/07 00:46:58;;;;;;;6.75;3.08;;;15.30;99.90;;;;;;5057233;28;20039;-89
2021/08/07 00:49:24;;;;;;;7.65;2.80;;;15.30;99.90;;;;;;5090874;28;20419;-92
2021/08/07 00:51:50;;;;;;;4.10;2.85;;;15.30;99.90;;;;;;5056070;28;20079;-90
2021/08/07 00:54:16;;;;;;;11.70;3.40;;;15.30;99.90;;;;;;5057138;28;20036;-89
2021/08/07 00:56:42;;;;;;;11.88;3.80;;;15.30;99.90;;;;;;5091627;28;20047;-90
2021/08/07 00:59:08;;;;;;;3.88;3.03;;;15.30;99.90;;;;;;5073601;28;20048;-91
2021/08/07 01:01:59;;;;;;;9.80;3.65;;;15.30;99.90;;;;;;5056589;28;20044;-91
2021/08/07 01:04:29;;;;;;;9.48;3.75;;;15.30;99.90;;;;;;5079993;28;20135;-90
2021/08/07 01:07:04;;;;;;;8.30;3.22;;;15.30;99.90;;;;;;5070970;28;20047;-91
2021/08/07 01:09:48;;;;;;;6.75;3.88;;;15.40;99.90;;;;;;5069431;28;20390;-90
2021/08/07 01:12:42;;;;;;;12.55;3.97;;;15.30;99.90;;;;;;5088586;28;20071;-91
2021/08/07 01:15:11;;;;;;;11.45;4.97;;;15.40;99.90;;;;;;5090288;28;20040;-90
2021/08/07 01:17:43;;;;;;;16.38;4.72;;;15.40;99.90;;;;;;5090656;28;20554;-89
2021/08/07 01:20:20;;;;;;;5.93;3.50;;;15.30;99.90;;;;;;5070669;28;20067;-89
2021/08/07 01:23:10;;;;;;;7.07;3.72;;;15.40;99.90;;;;;;5072402;28;20050;-91
2021/08/07 01:26:00;;;;;;;7.45;3.55;;;15.40;99.90;;;;;;5072817;28;20044;-89
2021/08/07 01:28:37;;;;;;;8.82;3.45;;;15.40;99.90;;;;;;5073969;28;20051;-91
2021/08/07 01:31:04;;;;;;;9.27;3.75;;;15.40;99.90;;;;;;5093791;28;20032;-91
2021/08/07 01:33:32;;;;;;;7.00;3.50;;;15.40;99.90;;;;;;5091353;28;20047;-93
2021/08/07 01:35:58;;;;;;;4.60;3.05;;;15.40;99.90;;;;;;5057106;28;20527;-89
2021/08/07 01:38:24;;;;;;;8.73;3.28;;;15.40;99.90;;;;;;5058759;28;20677;-90
2021/08/07 01:40:50;;;;;;;8.88;3.80;;;15.40;99.90;;;;;;5077247;28;20039;-91
2021/08/07 01:43:16;;;;;;;6.60;3.35;;;15.50;99.90;;;;;;5095390;28;20067;-91
2021/08/07 01:45:45;;;;;;;9.88;3.75;;;15.40;99.90;;;;;;5077256;28;20479;-91
2021/08/07 01:48:20;;;;;;;8.43;3.50;;;15.40;99.90;;;;;;5077380;28;20036;-90
2021/08/07 01:51:11;;;;;;;5.53;3.13;;;15.40;99.90;;;;;;5094688;28;20368;-89
2021/08/07 01:53:37;;;;;;;8.52;3.65;;;15.50;99.90;;;;;;5076228;28;20418;-90
2021/08/07 01:56:25;;;;;;;8.32;3.55;;;15.50;99.90;;;;;;5077405;28;20058;-90
2021/08/07 01:59:04;;;;;;;6.63;3.10;;;15.50;99.90;;;;;;5078346;28;20040;-91
2021/08/07 02:01:30;;;;;;;11.25;3.50;;;15.50;99.90;;;;;;5076770;28;20048;-90
2021/08/07 02:04:01;;;;;;;4.80;2.83;;;15.50;99.90;;;;;;5076181;28;20044;-89
2021/08/07 02:06:31;;;;;;;4.47;3.25;;;15.50;99.90;;;;;;5060526;28;20066;-91
2021/08/07 02:08:57;;;;;;;10.65;3.28;;;15.50;99.90;;;;;;5093554;28;20125;-90
2021/08/07 02:11:23;;;;;;;10.02;2.97;;;15.50;99.90;;;;;;5076812;28;20032;-90
2021/08/07 02:13:51;;;;;;;10.27;2.58;;;15.50;99.90;;;;;;5059118;28;20479;-91
2021/08/07 02:16:18;;;;;;;9.23;2.50;;;15.60;99.90;;;;;;5076402;28;20036;-90
2021/08/07 02:18:45;;;;;;;11.90;2.28;;;15.60;99.90;;;;;;5094087;28;20055;-91
2021/08/07 02:21:12;;;;;;;6.32;2.20;;;15.60;99.90;;;;;;5094323;28;20044;-90
2021/08/07 02:23:39;;;;;;;3.88;2.10;;;15.70;99.90;;;;;;5059937;28;20040;-92
2021/08/07 02:26:07;;;;;;;13.27;2.40;;;15.70;99.90;;;;;;5060323;28;20146;-91
2021/08/07 02:28:34;;;;;;;8.52;2.38;;;15.70;99.90;;;;;;5076255;28;20044;-93
2021/08/07 02:31:01;;;;;;;4.75;1.80;;;15.70;99.90;;;;;;5074760;28;20453;-90
2021/08/07 02:33:28;;;;;;;5.28;1.70;;;15.70;99.90;;;;;;5058409;28;20032;-91
2021/08/07 02:35:56;;;;;;;6.47;1.65;;;15.80;99.90;;;;;;5073224;28;20949;-92
2021/08/07 02:38:23;;;;;;;6.32;1.60;;;15.70;99.90;;;;;;5057864;28;20094;-90
2021/08/07 02:40:49;;;;;;;9.20;1.77;;;15.70;99.90;;;;;;5092880;28;20070;-88
2021/08/07 02:43:16;;;;;;;5.70;1.70;;;15.70;99.90;;;;;;5094073;28;20460;-93
2021/08/07 02:45:43;;;;;;;7.82;1.77;;;15.70;99.90;;;;;;5059086;28;20071;-89
2021/08/07 02:48:10;;;;;;;6.95;1.50;;;15.70;99.90;;;;;;5095888;28;20039;-88
2021/08/07 02:50:38;;;;;;;6.18;1.63;;;15.70;99.90;;;;;;5088058;28;20040;-90
2021/08/07 02:53:04;;;;;;;6.28;2.20;;;15.70;99.90;;;;;;5075266;28;20056;-88
2021/08/07 02:55:31;;;;;;;4.60;1.60;;;15.70;99.90;;;;;;5093260;28;20441;-89
2021/08/07 02:57:57;;;;;;;3.38;1.33;;;15.60;99.90;;;;;;5057499;28;20062;-89
2021/08/07 03:00:22;;;;;;;3.47;1.75;;;15.60;99.90;;;;;;5074517;28;20040;-89
2021/08/07 03:02:48;;;;;;;7.45;1.67;;;15.60;99.90;;;;;;5068550;28;20558;-89
2021/08/07 03:05:15;;;;;;;5.50;1.45;;;15.60;99.90;;;;;;5088869;28;20561;-91
2021/08/07 03:07:41;;;;;;;5.80;1.83;;;15.50;99.90;;;;;;5074213;28;20070;-93
2021/08/07 03:10:09;;;;;;;5.40;1.73;;;15.50;99.90;;;;;;5057986;28;20510;-90
2021/08/07 03:12:36;;;;;;;4.40;1.55;;;15.50;99.90;;;;;;5074153;28;20068;-90
2021/08/07 03:15:04;;;;;;;5.32;1.33;;;15.50;99.90;;;;;;5074260;28;20101;-90
2021/08/07 03:17:30;;;;;;;3.78;1.30;;;15.50;99.90;;;;;;5073774;28;20056;-90
2021/08/07 03:19:55;;;;;;;5.38;1.58;;;15.40;99.90;;;;;;5057501;28;20502;-88
2021/08/07 03:22:21;;;;;;;2.58;1.20;;;15.40;99.90;;;;;;5092195;28;20071;-90
2021/08/07 03:24:47;;;;;;;5.50;1.73;;;15.40;99.90;;;;;;5091443;28;20483;-90
2021/08/07 03:27:13;;;;;;;4.80;1.50;;;15.40;99.90;;;;;;5074263;28;20044;-91
2021/08/07 03:29:40;;;;;;;5.97;1.48;;;15.40;99.90;;;;;;5065477;28;20040;-91
2021/08/07 03:32:17;;;;;;;2.97;1.30;;;15.30;99.90;;;;;;5091900;28;20384;-89
2021/08/07 03:34:44;;;;;;;5.35;1.60;;;15.20;99.90;;;;;;5068136;28;20044;-92
2021/08/07 03:37:10;;;;;;;8.77;1.70;;;15.20;99.90;;;;;;5092228;28;20097;-90
2021/08/07 03:39:36;;;;;;;7.70;2.38;;;15.20;99.90;;;;;;5059507;28;20048;-90
2021/08/07 03:42:02;;;;;;;3.60;1.17;;;15.10;99.90;;;;;;5073784;28;20046;-90
2021/08/07 03:44:28;;;;;;;7.97;1.73;;;15.10;99.90;;;;;;5092151;28;20048;-89
2021/08/07 03:46:54;;;;;;;5.35;1.70;;;15.00;99.90;;;;;;5073294;28;20086;-91
2021/08/07 03:49:22;;;;;;;7.22;1.70;;;15.00;99.90;;;;;;5091128;28;20051;-90
2021/08/07 03:51:48;;;;;;;7.60;1.80;;;15.00;99.90;;;;;;5051831;28;1120878;-89
2021/08/07 03:54:14;;;;;;;4.63;1.80;;;15.00;99.90;;;;;;5092770;28;20144;-91
2021/08/07 03:56:40;;;;;;;8.15;1.77;;;14.90;99.90;;;;;;5074916;28;20055;-91
2021/08/07 03:59:06;;;;;;;8.75;1.48;;;14.90;99.90;;;;;;5092844;28;20040;-90
2021/08/07 04:01:32;;;;;;;7.32;1.85;;;14.80;99.90;;;;;;5057456;28;20092;-90
2021/08/07 04:03:58;;;;;;;6.65;1.70;;;14.90;99.90;;;;;;5074933;28;20050;-91
2021/08/07 04:06:23;;;;;;;8.18;1.70;;;14.80;99.90;;;;;;5054006;28;20127;-91
2021/08/07 04:08:49;;;;;;;6.88;1.63;;;14.80;99.90;;;;;;5075789;28;20116;-91
2021/08/07 04:11:15;;;;;;;7.80;1.70;;;14.80;99.90;;;;;;5092669;28;20036;-89
2021/08/07 04:13:41;;;;;;;3.78;1.92;;;14.80;99.90;;;;;;5041592;28;20181;-89
2021/08/07 04:16:08;;;;;;;7.93;1.45;;;14.80;99.90;;;;;;5074755;28;20040;-89
2021/08/07 04:18:34;;;;;;;2.70;1.30;;;14.70;99.90;;;;;;5058516;28;20052;-88
2021/08/07 04:21:00;;;;;;;3.35;1.35;;;14.70;99.90;;;;;;5072226;28;20094;-89
2021/08/07 04:23:25;;;;;;;4.50;1.73;;;14.60;99.90;;;;;;5103822;28;20422;-89
2021/08/07 04:25:51;;;;;;;9.25;2.28;;;14.60;99.90;;;;;;5085892;28;20041;-90
2021/08/07 04:28:17;;;;;;;5.28;1.60;;;14.50;99.90;;;;;;5042438;28;20093;-91
2021/08/07 04:30:44;;;;;;;9.23;1.83;;;14.40;99.90;;;;;;5057644;28;20044;-94
2021/08/07 04:33:10;;;;;;;6.15;1.77;;;14.40;99.90;;;;;;5073930;28;20068;-91
2021/08/07 04:35:36;;;;;;;6.90;1.80;;;14.40;99.90;;;;;;5074105;28;20067;-90
2021/08/07 04:38:03;;;;;;;7.22;1.60;;;14.40;99.90;;;;;;5090363;28;20048;-90
2021/08/07 04:40:29;;;;;;;3.47;1.40;;;14.40;99.90;;;;;;5092309;28;20119;-91
2021/08/07 04:42:56;;;;;;;7.43;1.73;;;14.40;99.90;;;;;;5072966;28;20392;-90
2021/08/07 04:45:22;;;;;;;7.10;2.15;;;14.40;99.90;;;;;;5085368;28;20047;-88
2021/08/07 04:47:59;;;;;;;7.38;1.60;;;14.40;99.90;;;;;;5073396;28;20109;-90
2021/08/07 04:50:28;;;;;;;10.27;1.85;;;14.30;99.90;;;;;;5068481;28;20043;-88
2021/08/07 04:52:55;;;;;;;5.68;1.95;;;14.30;99.90;;;;;;5073401;28;20119;-89
2021/08/07 04:55:21;;;;;;;10.32;2.50;;;14.30;99.90;;;;;;5057192;28;20032;-88
2021/08/07 04:57:47;;;;;;;4.75;1.88;;;14.30;99.90;;;;;;5073832;28;20040;-91
2021/08/07 05:00:14;;;;;;;4.55;1.77;;;14.30;99.90;;;;;;5080265;28;20118;-88
2021/08/07 05:02:41;;;;;;;11.75;2.45;;;14.40;99.90;;;;;;5073710;28;20068;-89
2021/08/07 05:05:08;;;;;;;7.80;1.85;;;14.40;99.90;;;;;;5056777;28;20036;-89
2021/08/07 05:07:34;;;;;;;8.88;2.50;;;14.40;99.90;;;;;;5056165;28;20287;-89
2021/08/07 05:10:01;;;;;;;15.80;2.70;;;14.50;99.90;;;;;;5095319;28;20085;-89
2021/08/07 05:12:27;;;;;;;10.18;2.75;;;14.50;99.90;;;;;;5073546;28;20052;-88
2021/08/07 05:14:54;;;;;;;11.48;2.10;;;14.50;99.90;;;;;;5056562;28;20055;-91
2021/08/07 05:17:20;;;;;;;8.25;2.25;;;14.50;99.90;;;;;;5073540;28;20119;-88
2021/08/07 05:19:46;;;;;;;6.35;2.20;;;14.60;99.90;;;;;;5073387;28;20086;-89
2021/08/07 05:22:12;;;;;;;8.80;1.95;;;14.60;99.90;;;;;;5091258;28;20088;-88
2021/08/07 05:24:38;;;;;;;8.10;2.00;;;14.60;99.90;;;;;;5073468;28;20043;-90
2021/08/07 05:27:04;;;;;;;9.48;2.88;;;14.60;99.90;;;;;;5056576;28;20040;-88
2021/08/07 05:29:29;;;;;;;6.13;2.22;;;14.70;99.90;;;;;;5090524;28;20115;-89
2021/08/07 05:31:56;;;;;;;9.10;2.70;;;14.70;99.90;;;;;;5072866;28;20042;-89
2021/08/07 05:34:21;;;;;;;9.85;2.53;;;14.70;99.90;;;;;;5040180;28;20040;-90
2021/08/07 05:36:47;;;;;;;6.40;2.05;;;14.70;99.90;;;;;;5091267;28;20071;-90
2021/08/07 05:39:13;;;;;;;7.22;2.15;;;14.80;99.90;;;;;;5073187;28;20036;-88
2021/08/07 05:41:39;;;;;;;11.10;2.90;;;14.80;99.90;;;;;;5057067;28;20040;-88
2021/08/07 05:44:05;;;;;;;7.50;2.13;;;14.90;99.90;;;;;;5056451;28;20048;-89
2021/08/07 05:46:30;;;;;;;9.52;2.97;;;14.90;99.90;;;;;;5073247;28;20044;-88
2021/08/07 05:48:56;;;;;;;11.32;2.72;;;15.00;99.90;;;;;;5056140;28;20134;-90
2021/08/07 05:51:23;;;;;;;18.75;2.10;;;15.10;99.90;;;;;;5072889;28;20048;-88
2021/08/07 05:53:49;;;;;;;9.68;2.13;;;15.20;99.90;;;;;;5056500;28;20115;-88
2021/08/07 05:56:15;;;;;;;12.73;2.50;;;15.40;99.90;;;;;;5055707;28;20044;-88
2021/08/07 05:58:41;;;;;;;12.50;2.72;;;15.50;99.90;;;;;;5090835;28;20468;-89
2021/08/07 06:01:07;;;;;;;14.77;2.60;;;15.60;99.90;;;;;;5072739;28;20032;-89
2021/08/07 06:03:33;;;;;;;10.18;2.15;;;15.70;99.90;;;;;;5090072;28;20396;-89
2021/08/07 06:06:00;;;;;;;10.63;2.42;;;15.90;99.90;;;;;;5072849;28;20060;-90
2021/08/07 06:08:28;;;;;;;13.25;2.63;;;15.90;99.90;;;;;;5090924;28;20040;-91
2021/08/07 06:10:55;;;;;;;12.00;2.25;;;16.00;99.90;;;;;;5056226;28;20052;-92
2021/08/07 06:13:21;;;;;;;9.40;2.45;;;16.10;99.90;;;;;;5056089;28;20497;-89
2021/08/07 06:15:48;;;;;;;8.82;2.10;;;16.20;99.90;;;;;;5073487;28;20040;-90
2021/08/07 06:18:13;;;;;;;11.88;2.72;;;16.30;99.90;;;;;;5090534;28;20686;-89
2021/08/07 06:20:39;;;;;;;8.85;2.00;;;16.30;99.90;;;;;;5039685;28;20118;-89
2021/08/07 06:23:05;;;;;;;9.48;2.47;;;16.30;99.90;;;;;;5052566;28;20060;-89
2021/08/07 06:25:31;;;;;;;7.53;2.05;;;16.40;99.90;;;;;;5044177;28;20052;-89
2021/08/07 06:27:57;;;;;;;10.25;2.08;;;16.50;99.90;;;;;;5057424;28;20077;-91
2021/08/07 06:30:25;;;;;;;12.63;2.33;;;16.60;99.90;;;;;;5076262;28;20507;-89
2021/08/07 06:32:52;;;;;;;7.18;2.50;;;16.70;99.90;;;;;;5059708;28;20115;-89
2021/08/07 06:35:19;;;;;;;11.05;2.45;;;16.70;99.90;;;;;;5075926;28;20097;-90
2021/08/07 06:37:45;;;;;;;13.88;2.65;;;16.80;99.90;;;;;;5076207;28;20121;-90
2021/08/07 06:40:12;;;;;;;10.98;2.47;;;16.90;99.90;;;;;;5052494;28;20407;-90
2021/08/07 06:42:38;;;;;;;4.82;2.15;;;16.90;99.90;;;;;;5093928;28;20460;-90
2021/08/07 06:45:05;;;;;;;8.15;2.60;;;17.00;99.90;;;;;;5059248;28;20119;-89
2021/08/07 06:47:31;;;;;;;12.10;2.05;;;17.00;99.90;;;;;;5076192;28;20475;-88
2021/08/07 06:49:56;;;;;;;8.90;2.90;;;17.00;99.90;;;;;;5093919;28;20040;-92
2021/08/07 06:52:22;;;;;;;6.32;1.80;;;17.10;99.90;;;;;;5075204;28;20530;-87
2021/08/07 06:54:48;;;;;;;7.35;2.00;;;17.10;99.90;;;;;;5059105;28;20037;-88
2021/08/07 06:57:21;;;;;;;7.28;2.47;;;17.10;99.90;;;;;;5058298;28;20492;-90
2021/08/07 06:59:47;;;;;;;6.70;2.10;;;17.10;99.90;;;;;;5058984;28;20453;-89
2021/08/07 07:02:13;;;;;;;7.00;2.22;;;17.20;99.90;;;;;;5070351;28;20062;-89
2021/08/07 07:04:39;;;;;;;9.77;2.28;;;17.20;99.90;;;;;;5075414;28;20044;-89
2021/08/07 07:07:05;;;;;;;6.65;1.85;;;17.30;99.90;;;;;;5074053;28;20036;-90
2021/08/07 07:09:32;;;;;;;8.05;1.98;;;17.50;99.90;;;;;;5091562;28;20043;-92
2021/08/07 07:11:58;;;;;;;7.57;2.15;;;17.60;99.90;;;;;;5056440;28;20036;-90
2021/08/07 07:14:24;;;;;;;11.05;2.15;;;17.70;99.90;;;;;;5091236;28;20036;-87
2021/08/07 07:16:50;;;;;;;11.57;2.15;;;17.80;99.90;;;;;;5074736;28;20344;-85
2021/08/07 07:19:15;;;;;;;8.60;2.20;;;17.80;99.90;;;;;;5070582;28;20036;-84
2021/08/07 07:21:42;;;;;;;7.22;1.58;;;17.80;99.90;;;;;;5093071;28;20070;-85
2021/08/07 07:24:08;;;;;;;5.45;1.52;;;17.80;99.90;;;;;;5074917;28;20115;-85
2021/08/07 07:26:35;;;;;;;4.63;1.55;;;17.80;99.90;;;;;;5092743;28;20051;-85
2021/08/07 07:29:01;;;;;;;12.43;2.30;;;17.80;99.90;;;;;;5093102;28;20036;-91
2021/08/07 07:31:28;;;;;;;12.07;2.63;;;17.90;99.90;;;;;;5092561;28;20048;-86
2021/08/07 07:33:54;;;;;;;9.13;1.95;;;17.90;99.90;;;;;;5092021;28;20430;-85
2021/08/07 07:36:21;;;;;;;10.95;2.17;;;18.00;99.90;;;;;;5072552;28;20039;-85
2021/08/07 07:38:46;;;;;;;10.77;1.90;;;18.00;99.90;;;;;;5063447;28;20040;-87
2021/08/07 07:41:13;;;;;;;6.55;1.77;;;18.10;99.90;;;;;;5071428;28;20491;-86
2021/08/07 07:43:38;;;;;;;11.32;2.20;;;18.10;99.90;;;;;;5058339;28;20479;-90
2021/08/07 07:46:05;;;;;;;13.80;2.30;;;18.30;99.90;;;;;;5074303;28;20086;-90
2021/08/07 07:48:30;;;;;;;6.53;1.67;;;18.40;99.90;;;;;;5092650;28;20442;-87
2021/08/07 07:50:56;;;;;;;8.27;2.08;;;18.60;99.90;;;;;;5058135;28;20048;-86
2021/08/07 07:53:22;;;;;;;10.45;1.75;;;18.60;99.90;;;;;;5091376;28;20036;-86
2021/08/07 07:55:48;;;;;;;11.90;1.75;;;18.70;99.90;;;;;;5074878;28;20040;-85
2021/08/07 07:58:14;;;;;;;6.82;1.80;;;18.70;99.90;;;;;;5062028;28;20069;-86
2021/08/07 08:00:40;;;;;;;7.53;2.15;;;18.80;99.90;;;;;;5092911;28;20476;-86
2021/08/07 08:03:06;;;;;;;7.70;1.90;;;18.80;99.90;;;;;;5057495;28;20047;-90
2021/08/07 08:05:32;;;;;;;7.95;1.85;;;18.90;99.90;;;;;;5075265;28;20400;-86
2021/08/07 08:07:58;;;;;;;6.80;1.75;;;19.00;99.90;;;;;;5091745;28;20071;-85
2021/08/07 08:10:24;;;;;;;7.88;1.77;;;19.10;99.90;;;;;;5053423;28;20052;-86
2021/08/07 08:12:50;;;;;;;8.95;2.10;;;19.20;99.90;;;;;;5057119;28;20036;-87
2021/08/07 08:15:16;;;;;;;10.68;1.80;;;19.20;99.90;;;;;;5090750;28;20123;-86
2021/08/07 08:17:42;;;;;;;8.77;1.40;;;19.30;99.90;;;;;;5091455;28;20795;-88
2021/08/07 08:20:10;;;;;;;4.15;1.60;;;19.30;99.90;;;;;;5056910;28;20052;-90
2021/08/07 08:22:36;;;;;;;7.30;1.77;;;19.20;99.90;;;;;;5074948;28;20070;-86
2021/08/07 08:25:03;;;;;;;10.68;1.70;;;19.30;99.90;;;;;;5054453;28;20044;-87
2021/08/07 08:27:29;;;;;;;10.52;2.15;;;19.20;99.90;;;;;;5087716;28;20052;-89
2021/08/07 08:29:57;;;;;;;6.50;1.63;;;19.10;99.90;;;;;;5074089;28;20092;-86
2021/08/07 08:32:22;;;;;;;7.80;2.08;;;19.20;99.90;;;;;;5073521;28;20057;-87
2021/08/07 08:34:49;;;;;;;6.57;1.38;;;19.20;99.90;;;;;;5057198;28;20039;-87
2021/08/07 08:37:15;;;;;;;8.93;1.65;;;19.20;99.90;;;;;;5082483;28;20396;-86
2021/08/07 08:39:41;;;;;;;8.23;1.60;;;19.20;99.90;;;;;;5073924;28;20476;-84
2021/08/07 08:42:07;;;;;;;6.03;1.35;;;19.30;99.90;;;;;;5091107;28;20054;-91
2021/08/07 08:44:34;;;;;;;9.27;1.98;;;19.30;99.90;;;;;;5072829;28;20052;-85
2021/08/07 08:47:00;;;;;;;7.10;1.60;;;19.30;99.90;;;;;;5077462;28;20043;-85
2021/08/07 08:49:29;;;;;;;5.50;1.35;;;19.20;99.90;;;;;;5073234;28;20052;-87
2021/08/07 08:51:55;;;;;;;4.82;1.58;;;19.30;99.90;;;;;;5073260;28;20081;-88
2021/08/07 08:54:21;;;;;;;4.53;1.30;;;19.30;99.90;;;;;;5072500;28;20129;-87
2021/08/07 08:56:48;;;;;;;7.07;1.30;;;19.30;99.90;;;;;;5071145;28;20475;-88
2021/08/07 08:59:14;;;;;;;3.58;1.75;;;19.40;99.90;;;;;;5072025;28;20051;-87
2021/08/07 09:01:40;;;;;;;3.88;1.13;;;19.40;99.90;;;;;;5090548;28;20325;-88
2021/08/07 09:04:06;;;;;;;6.32;1.17;;;19.40;99.90;;;;;;5056483;28;20098;-87
2021/08/07 09:06:33;;;;;;;3.20;1.23;;;19.40;99.90;;;;;;5088700;28;20184;-87
2021/08/07 09:09:09;;;;;;;4.05;1.20;;;19.50;99.90;;;;;;5074276;28;20040;-87
2021/08/07 09:11:38;;;;;;;5.00;1.08;;;19.50;99.90;;;;;;5073416;28;20052;-87
2021/08/07 09:14:25;;;;;;;3.80;1.15;;;19.60;99.90;;;;;;5056711;28;20499;-87
2021/08/07 09:17:00;;;;;;;3.72;1.35;;;19.60;99.90;;;;;;5055833;28;20070;-87
2021/08/07 09:19:27;;;;;;;10.15;1.27;;;19.70;99.90;;;;;;5089769;28;20115;-89
2021/08/07 09:22:11;;;;;;;4.25;1.13;;;19.70;99.90;;;;;;5055610;28;20098;-87
2021/08/07 09:24:57;;;;;;;6.70;1.25;;;19.80;99.90;;;;;;5089473;28;20040;-87
2021/08/07 09:27:34;;;;;;;4.68;1.00;;;19.70;99.90;;;;;;5089921;28;20470;-86
2021/08/07 09:30:02;;;;;;;4.65;1.00;;;19.60;99.90;;;;;;5076815;28;20117;-87
2021/08/07 09:32:46;;;;;;;2.28;0.90;;;19.60;99.90;;;;;;5089365;28;20040;-87
2021/08/07 09:35:15;;;;;;;3.50;0.90;;;19.70;99.90;;;;;;5059478;28;20117;-91
2021/08/07 09:37:42;;;;;;;1.27;0.80;;;19.80;99.90;;;;;;5052201;28;20466;-88
2021/08/07 09:40:11;;;;;;;3.15;1.20;;;19.90;99.90;;;;;;5088315;28;20092;-87
2021/08/07 09:42:52;;;;;;;4.25;1.25;;;20.00;99.90;;;;;;5071686;28;20060;-87
2021/08/07 09:45:23;;;;;;;4.53;0.85;;;20.00;99.90;;;;;;5085513;28;20084;-87
2021/08/07 09:48:08;;;;;;;4.55;1.20;;;20.10;99.90;;;;;;5058876;28;20036;-86
2021/08/07 09:50:35;;;;;;;3.83;1.02;;;20.20;99.90;;;;;;5077930;28;20036;-89
2021/08/07 09:53:02;;;;;;;2.42;0.82;;;20.20;99.90;;;;;;5089861;28;20047;-87
2021/08/07 09:55:28;;;;;;;7.10;0.85;;;20.30;99.90;;;;;;5089599;28;20044;-87
2021/08/07 09:58:11;;;;;;;3.72;0.98;;;20.40;99.90;;;;;;5085782;28;20058;-88
2021/08/07 10:00:43;;;;;;;3.40;0.80;;;20.60;99.90;;;;;;5062724;28;20502;-87
2021/08/07 10:03:20;;;;;;;3.90;1.00;;;20.60;99.90;;;;;;5076176;28;20032;-87
2021/08/07 10:05:47;;;;;;;2.63;0.70;;;20.80;99.90;;;;;;5068648;28;20499;-87
2021/08/07 10:08:13;;;;;;;0.95;0.68;;;20.90;99.90;;;;;;5075789;28;20039;-87
2021/08/07 10:10:41;;;;;;;2.35;0.93;;;20.80;99.90;;;;;;5074725;28;20380;-88
2021/08/07 10:13:08;;;;;;;3.15;1.33;;;20.80;99.90;;;;;;5094308;28;20039;-88
2021/08/07 10:15:37;;;;;;;2.45;0.90;;;20.70;99.90;;;;;;5093787;28;20052;-90
2021/08/07 10:18:04;;;;;;;1.73;0.80;;;20.70;99.90;;;;;;5091650;28;20066;-88
2021/08/07 10:20:32;;;;;;;3.95;0.82;;;20.90;99.90;;;;;;5093566;28;20040;-88
2021/08/07 10:22:58;;;;;;;2.58;0.80;;;21.00;99.90;;;;;;5076226;28;20101;-88
2021/08/07 10:25:25;;;;;;;2.40;0.63;;;21.20;99.90;;;;;;5075930;28;20067;-87
2021/08/07 10:27:59;;;;;;;1.98;0.52;;;21.30;99.90;;;;;;5075640;28;20495;-88
2021/08/07 10:30:27;;;;;;;2.10;0.90;;;21.50;99.90;;;;;;5075675;28;20131;-87
2021/08/07 10:32:56;;;;;;;2.53;0.60;;;21.70;99.90;;;;;;5093875;28;20040;-87
2021/08/07 10:35:25;;;;;;;2.33;0.70;;;21.90;99.90;;;;;;5102329;28;20040;-88
2021/08/07 10:37:53;;;;;;;3.00;0.88;;;22.10;99.90;;;;;;5059873;28;20040;-86
2021/08/07 10:40:19;;;;;;;2.88;0.85;;;22.10;99.90;;;;;;5093582;28;20040;-90
2021/08/07 10:42:46;;;;;;;1.27;0.70;;;22.30;99.90;;;;;;5040351;28;20059;-84
2021/08/07 10:45:13;;;;;;;8.43;1.00;;;22.60;99.90;;;;;;5070885;28;20040;-85
2021/08/07 10:47:42;;;;;;;2.97;0.80;;;22.70;99.60;;;;;;5051296;28;20116;-86
2021/08/07 10:50:34;;;;;;;4.95;0.88;;;22.80;98.80;;;;;;5091813;28;20036;-88
2021/08/07 10:53:06;;;;;;;2.88;0.90;;;22.80;99.00;;;;;;5081979;28;20496;-89
2021/08/07 10:55:56;;;;;;;1.85;0.50;;;22.70;98.10;;;;;;5055011;28;20036;-89
2021/08/07 10:58:42;;;;;;;1.42;0.70;;;22.80;98.50;;;;;;5059428;28;20063;-92
2021/08/07 11:01:24;;;;;;;1.60;0.77;;;22.80;98.00;;;;;;5052256;28;20039;-88
2021/08/07 11:04:11;;;;;;;2.83;0.82;;;22.90;98.10;;;;;;5073028;28;20082;-89
2021/08/07 11:06:52;;;;;;;1.48;0.95;;;23.00;98.90;;;;;;5054448;28;20381;-88
2021/08/07 11:09:29;;;;;;;4.65;0.70;;;23.10;98.50;;;;;;5059214;28;20070;-88
2021/08/07 11:12:13;;;;;;;1.23;0.63;;;23.30;97.00;;;;;;5056390;28;20036;-89
2021/08/07 11:14:45;;;;;;;2.75;0.77;;;23.30;96.50;;;;;;5054623;28;20044;-88
2021/08/07 11:17:10;;;;;;;2.78;0.90;;;23.20;95.80;;;;;;5042663;28;20046;-88
2021/08/07 11:19:55;;;;;;;3.75;1.00;;;23.40;96.60;;;;;;5068321;28;20462;-88
2021/08/07 11:22:44;;;;;;;1.35;0.70;;;23.50;96.10;;;;;;5054584;28;20478;-88
2021/08/07 11:25:24;;;;;;;3.88;0.82;;;23.40;96.20;;;;;;5053214;28;20119;-91
2021/08/07 11:28:01;;;;;;;;;;;23.40;96.10;;;;;;5081974;28;20045;-87
2021/08/07 11:30:28;;;;;;;2.22;0.60;;;23.40;96.10;;;;;;5056319;28;19931;-90
2021/08/07 11:32:56;;;;;;;1.73;0.70;;;23.70;96.30;;;;;;5080709;28;20053;-88
2021/08/07 11:35:38;;;;;;;1.05;0.50;;;23.70;95.80;;;;;;5086354;28;20083;-88
2021/08/07 11:38:48;;;;;;;2.20;0.82;;;23.50;95.20;;;;;;5054257;28;20129;-88
2021/08/07 11:41:04;;;;;;;1.85;0.65;;;23.50;96.30;;;;;;5060167;28;20058;-89
2021/08/07 11:43:40;;;;;;;3.05;1.00;;;23.60;95.90;;;;;;5053351;28;20044;-88
2021/08/07 11:46:11;;;;;;;2.85;0.75;;;23.60;96.00;;;;;;5054683;28;20036;-88
2021/08/07 11:48:45;;;;;;;2.30;0.90;;;23.30;95.50;;;;;;5054308;28;20048;-88
2021/08/07 11:51:14;;;;;;;1.25;0.70;;;23.40;95.30;;;;;;5038016;28;20063;-89
2021/08/07 11:53:43;;;;;;;1.23;0.70;;;23.50;96.10;;;;;;5091840;28;20129;-90
2021/08/07 11:56:17;;;;;;;1.45;0.77;;;23.70;95.90;;;;;;5074550;28;20051;-88
2021/08/07 11:58:47;;;;;;;5.85;1.27;;;23.70;96.50;;;;;;5055973;28;20086;-88
2021/08/07 12:01:14;;;;;;;1.38;0.82;;;23.80;95.60;;;;;;5091469;28;20040;-88
2021/08/07 12:03:44;;;;;;;3.70;0.90;;;24.00;95.40;;;;;;5073165;28;20545;-88
2021/08/07 12:06:10;;;;;;;;;;;24.40;94.40;;;;;;5074498;28;20047;-88
2021/08/07 12:08:37;;;;;;;0.82;0.60;;;24.50;93.30;;;;;;5057552;28;19920;-88
2021/08/07 12:11:06;;;;;;;5.10;0.70;;;24.60;92.70;;;;;;5074221;28;20044;-89
2021/08/07 12:13:36;;;;;;;2.25;0.90;;;24.40;93.20;;;;;;5072560;28;20040;-88
2021/08/07 12:16:11;;;;;;;3.15;0.90;;;24.50;93.20;;;;;;5073414;28;20055;-88
2021/08/07 12:18:40;;;;;;;1.90;0.80;;;24.60;93.60;;;;;;5091270;28;20090;-88
2021/08/07 12:21:07;;;;;;;1.27;0.68;;;24.70;93.60;;;;;;5073123;28;20256;-86
2021/08/07 12:23:40;;;;;;;1.60;0.68;;;24.60;93.50;;;;;;5091094;28;20039;-88
2021/08/07 12:26:06;;;;;;;2.60;0.68;;;24.70;94.20;;;;;;5072566;28;20044;-87
2021/08/07 12:28:33;;;;;;;1.63;0.75;;;24.70;92.90;;;;;;5073260;28;20040;-91
2021/08/07 12:31:01;;;;;;;0.93;0.40;;;25.10;93.30;;;;;;5057291;28;20389;-88
2021/08/07 12:33:30;;;;;;;0.77;0.55;;;25.40;90.60;;;;;;5066557;28;20044;-88
2021/08/07 12:35:56;;;;;;;2.75;0.90;;;25.70;90.70;;;;;;5085052;28;20396;-88
2021/08/07 12:38:25;;;;;;;2.13;0.50;;;25.90;89.00;;;;;;5090165;28;20122;-89
2021/08/07 12:40:59;;;;;;;1.60;0.70;;;26.20;86.40;;;;;;5090550;28;20036;-88
2021/08/07 12:43:30;;;;;;;1.33;0.60;;;26.50;85.60;;;;;;5073076;28;20044;-88
2021/08/07 12:45:57;;;;;;;2.78;0.70;;;26.80;84.80;;;;;;5090348;28;20047;-87
2021/08/07 12:48:23;;;;;;;2.10;0.70;;;26.90;86.00;;;;;;5072830;28;20097;-88
2021/08/07 12:51:02;;;;;;;1.52;0.80;;;26.80;84.50;;;;;;5072800;28;20404;-87
2021/08/07 12:53:42;;;;;;;2.05;0.75;;;26.60;86.40;;;;;;5055972;28;20105;-88